Time;durP1;ratioP1;P1;durP2;ratioP2;P2;SDS_P1;SDS_P2;PMS_P1;PMS_P2;Temp;Humidity;BMP_temperature;BMP_pressure;BME280_temperature;BME280_humidity;BME280_pressure;Samples;Min_cycle;Max_cycle;Signal;HPM_P1;HPM_P2
2021/06/16 00:01:59;;;;;;;3.97;1.98;;;17.30;66.30;;;;;;4999422;28;20129;-80
2021/06/16 00:04:25;;;;;;;4.38;2.22;;;17.30;66.50;;;;;;5014235;28;20092;-81
2021/06/16 00:06:51;;;;;;;9.05;2.35;;;17.20;66.80;;;;;;5006829;28;20120;-81
2021/06/16 00:09:17;;;;;;;11.02;1.95;;;17.10;67.20;;;;;;4997810;28;20061;-81
2021/06/16 00:11:43;;;;;;;7.45;1.45;;;17.10;67.60;;;;;;5000376;28;20049;-80
2021/06/16 00:14:08;;;;;;;3.60;2.30;;;17.00;67.50;;;;;;4999195;28;20096;-81
2021/06/16 00:16:34;;;;;;;5.90;2.33;;;17.00;68.70;;;;;;4999929;28;20091;-68
2021/06/16 00:19:00;;;;;;;1.73;1.45;;;16.90;68.50;;;;;;4997866;28;20029;-68
2021/06/16 00:21:26;;;;;;;6.22;1.98;;;16.80;68.60;;;;;;4999572;28;20032;-68
2021/06/16 00:23:51;;;;;;;7.22;2.53;;;16.70;68.40;;;;;;4999361;28;20034;-68
2021/06/16 00:26:17;;;;;;;4.15;1.73;;;16.70;69.10;;;;;;4999408;28;20033;-67
2021/06/16 00:28:43;;;;;;;4.13;2.10;;;16.70;69.00;;;;;;4995016;28;20034;-67
2021/06/16 00:31:09;;;;;;;4.00;1.42;;;16.70;69.50;;;;;;4997014;28;20106;-68
2021/06/16 00:33:34;;;;;;;3.10;1.33;;;16.60;69.50;;;;;;4999153;28;20089;-67
2021/06/16 00:36:00;;;;;;;5.05;2.05;;;16.50;69.50;;;;;;4999934;28;20090;-68
2021/06/16 00:38:27;;;;;;;4.13;2.13;;;16.50;70.30;;;;;;4997881;28;20046;-67
2021/06/16 00:40:53;;;;;;;5.40;2.13;;;16.50;69.90;;;;;;5004980;28;20439;-68
2021/06/16 00:43:19;;;;;;;3.83;1.75;;;16.50;69.60;;;;;;4997986;28;20445;-68
2021/06/16 00:45:44;;;;;;;4.53;1.90;;;16.50;69.30;;;;;;4998342;28;20101;-68
2021/06/16 00:48:10;;;;;;;5.32;2.00;;;16.40;69.50;;;;;;4995713;28;20033;-68
2021/06/16 00:50:38;;;;;;;13.77;2.03;;;16.40;69.80;;;;;;4999086;28;20056;-67
2021/06/16 00:53:05;;;;;;;6.85;2.28;;;16.30;69.90;;;;;;4999190;28;20033;-67
2021/06/16 00:55:30;;;;;;;7.32;3.05;;;16.30;70.30;;;;;;4999335;28;20026;-68
2021/06/16 00:57:57;;;;;;;4.05;1.92;;;16.30;70.20;;;;;;4995960;28;20472;-67
2021/06/16 01:00:27;;;;;;;7.20;2.47;;;16.30;70.10;;;;;;5005842;28;20488;-68
2021/06/16 01:03:03;;;;;;;7.28;2.08;;;16.20;69.70;;;;;;4996613;28;20026;-67
2021/06/16 01:05:36;;;;;;;6.80;2.60;;;16.20;70.20;;;;;;4998371;28;20033;-67
2021/06/16 01:08:03;;;;;;;4.60;2.00;;;16.10;70.30;;;;;;4996188;28;20132;-68
2021/06/16 01:10:34;;;;;;;2.65;1.90;;;16.10;70.40;;;;;;4999444;28;20092;-67
2021/06/16 01:13:21;;;;;;;4.88;1.80;;;16.10;70.60;;;;;;4998575;28;20030;-67
2021/06/16 01:16:02;;;;;;;5.05;2.20;;;16.00;70.60;;;;;;5000959;28;20038;-67
2021/06/16 01:18:30;;;;;;;5.22;2.15;;;16.00;71.00;;;;;;5001574;28;20713;-67
2021/06/16 01:20:57;;;;;;;5.47;2.35;;;15.90;71.00;;;;;;5001374;28;20026;-67
2021/06/16 01:23:38;;;;;;;3.65;1.80;;;15.90;70.90;;;;;;5002167;28;20026;-67
2021/06/16 01:26:04;;;;;;;4.78;1.77;;;15.90;71.10;;;;;;5003570;28;20518;-67
2021/06/16 01:29:00;;;;;;;4.10;2.10;;;15.90;71.50;;;;;;5001989;28;20060;-67
2021/06/16 01:31:27;;;;;;;5.13;2.03;;;15.90;71.40;;;;;;5001628;28;20540;-67
2021/06/16 01:33:53;;;;;;;3.53;1.92;;;15.90;71.70;;;;;;5002784;28;20375;-67
2021/06/16 01:36:24;;;;;;;3.55;1.85;;;15.80;72.20;;;;;;5002249;28;20481;-67
2021/06/16 01:38:50;;;;;;;4.18;2.00;;;15.80;71.90;;;;;;5000780;28;20027;-67
2021/06/16 01:41:17;;;;;;;4.85;1.45;;;15.70;72.40;;;;;;5001998;28;20032;-67
2021/06/16 01:43:43;;;;;;;3.67;1.33;;;15.70;72.30;;;;;;5002384;28;20025;-67
2021/06/16 01:46:10;;;;;;;3.90;1.65;;;15.60;72.50;;;;;;5002486;28;20026;-67
2021/06/16 01:48:39;;;;;;;5.93;1.40;;;15.50;73.10;;;;;;5000081;28;20036;-67
2021/06/16 01:51:06;;;;;;;5.68;1.55;;;15.40;73.10;;;;;;5000537;28;20080;-67
2021/06/16 01:53:33;;;;;;;3.92;1.20;;;15.30;73.70;;;;;;5000539;28;20084;-67
2021/06/16 01:55:59;;;;;;;4.25;2.13;;;15.30;73.50;;;;;;5002392;28;20109;-67
2021/06/16 01:58:25;;;;;;;5.82;1.88;;;15.30;73.80;;;;;;4997863;28;20069;-67
2021/06/16 02:00:53;;;;;;;3.28;0.88;;;15.20;73.90;;;;;;5001696;28;20512;-67
2021/06/16 02:03:19;;;;;;;6.40;1.65;;;15.20;73.70;;;;;;5009203;28;20026;-68
2021/06/16 02:05:44;;;;;;;7.55;1.83;;;15.20;74.20;;;;;;5001657;28;20034;-68
2021/06/16 02:08:17;;;;;;;3.05;1.17;;;15.20;74.40;;;;;;4998007;28;20029;-68
2021/06/16 02:10:46;;;;;;;4.53;1.73;;;15.20;74.10;;;;;;5002604;28;20021;-68
2021/06/16 02:13:14;;;;;;;4.57;1.50;;;15.20;74.60;;;;;;5001766;28;20041;-68
2021/06/16 02:15:55;;;;;;;3.30;1.20;;;15.10;74.10;;;;;;5002864;28;20018;-68
2021/06/16 02:18:28;;;;;;;4.95;1.00;;;15.10;74.60;;;;;;5000640;28;20030;-68
2021/06/16 02:20:54;;;;;;;4.05;1.58;;;15.10;74.40;;;;;;5001582;28;20042;-68
2021/06/16 02:23:21;;;;;;;;;;;15.10;74.40;;;;;;5000426;28;20118;-68
2021/06/16 02:25:48;;;;;;;3.05;1.45;;;15.10;74.50;;;;;;4999435;28;20288;-67
2021/06/16 02:28:13;;;;;;;2.55;1.40;;;15.00;74.40;;;;;;5000152;28;20026;-67
2021/06/16 02:30:39;;;;;;;;;;;15.00;74.40;;;;;;5002161;28;20624;-67
2021/06/16 02:33:04;;;;;;;3.22;1.48;;;15.00;74.80;;;;;;5000488;28;20280;-67
2021/06/16 02:35:30;;;;;;;3.65;1.50;;;14.90;74.90;;;;;;4998909;28;20030;-67
2021/06/16 02:38:03;;;;;;;;;;;14.90;75.00;;;;;;5006686;28;20647;-67
2021/06/16 02:40:29;;;;;;;6.68;1.55;;;14.90;74.80;;;;;;5017296;28;20292;-67
2021/06/16 02:42:55;;;;;;;3.00;1.15;;;14.90;74.90;;;;;;5000684;28;20167;-68
2021/06/16 02:45:22;;;;;;;;;;;14.90;75.40;;;;;;4999738;28;20116;-68
2021/06/16 02:47:50;;;;;;;4.57;2.03;;;14.80;75.40;;;;;;4999331;28;20001;-68
2021/06/16 02:50:22;;;;;;;3.28;1.27;;;14.80;75.10;;;;;;4999480;28;20023;-68
2021/06/16 02:52:48;;;;;;;5.50;2.63;;;14.80;75.00;;;;;;4999879;28;20363;-68
2021/06/16 02:55:14;;;;;;;1.75;1.05;;;14.90;75.20;;;;;;5001388;28;20031;-68
2021/06/16 02:57:41;;;;;;;;;;;14.90;75.30;;;;;;5002024;28;20539;-68
2021/06/16 03:00:09;;;;;;;6.75;1.52;;;14.90;75.00;;;;;;5000129;28;20308;-68
2021/06/16 03:02:37;;;;;;;3.00;1.35;;;14.90;75.60;;;;;;5000442;28;20452;-68
2021/06/16 03:05:05;;;;;;;3.08;1.30;;;14.80;75.60;;;;;;5001339;28;20923;-68
2021/06/16 03:07:33;;;;;;;2.28;1.27;;;14.70;75.80;;;;;;5000547;28;20049;-68
2021/06/16 03:09:59;;;;;;;6.13;1.60;;;14.60;76.20;;;;;;4999763;28;20486;-68
2021/06/16 03:12:26;;;;;;;3.47;1.52;;;14.50;76.70;;;;;;5000871;28;20480;-68
2021/06/16 03:14:53;;;;;;;4.35;1.77;;;14.50;76.60;;;;;;5006628;28;20026;-68
2021/06/16 03:17:20;;;;;;;4.43;1.45;;;14.50;76.60;;;;;;4999626;28;20025;-68
2021/06/16 03:19:47;;;;;;;7.88;1.75;;;14.50;76.50;;;;;;4996273;28;20041;-68
2021/06/16 03:22:13;;;;;;;4.55;1.52;;;14.50;76.20;;;;;;4999729;28;20037;-68
2021/06/16 03:24:42;;;;;;;2.55;1.30;;;14.60;76.20;;;;;;5015326;28;20026;-68
2021/06/16 03:27:08;;;;;;;8.13;1.85;;;14.60;76.00;;;;;;5000141;28;20019;-68
2021/06/16 03:29:35;;;;;;;;;;;14.70;75.60;;;;;;4999795;28;20471;-68
2021/06/16 03:32:02;;;;;;;5.83;1.47;;;14.70;75.30;;;;;;5000344;28;19909;-68
2021/06/16 03:34:28;;;;;;;6.80;2.35;;;14.80;75.30;;;;;;4998086;28;20121;-68
2021/06/16 03:36:54;;;;;;;;;;;14.80;75.40;;;;;;5000850;28;20018;-68
2021/06/16 03:39:20;;;;;;;6.60;1.30;;;14.90;75.40;;;;;;4997766;28;19917;-68
2021/06/16 03:41:46;;;;;;;;;;;15.20;75.10;;;;;;5001273;28;20150;-68
2021/06/16 03:44:12;;;;;;;4.97;2.75;;;15.60;74.20;;;;;;4997810;28;19921;-68
2021/06/16 03:46:40;;;;;;;9.18;1.17;;;16.10;73.30;;;;;;5000477;28;20025;-68
2021/06/16 03:49:09;;;;;;;2.58;1.05;;;16.60;71.60;;;;;;4999462;28;20474;-68
2021/06/16 03:51:36;;;;;;;3.28;1.73;;;16.90;70.50;;;;;;4997668;28;20026;-68
2021/06/16 03:54:10;;;;;;;5.82;1.55;;;17.20;69.80;;;;;;4999638;28;20030;-68
2021/06/16 03:56:40;;;;;;;3.28;0.95;;;17.60;69.40;;;;;;5000325;28;20057;-68
2021/06/16 03:59:07;;;;;;;4.80;1.60;;;17.70;68.00;;;;;;4997689;28;20034;-68
2021/06/16 04:01:33;;;;;;;7.35;1.80;;;17.50;67.70;;;;;;4995985;28;20437;-68
2021/06/16 04:04:02;;;;;;;8.07;4.95;;;17.30;68.10;;;;;;4999662;28;20282;-68
2021/06/16 04:06:27;;;;;;;3.20;2.38;;;17.40;68.10;;;;;;5000889;28;20038;-68
2021/06/16 04:08:53;;;;;;;6.03;2.33;;;17.60;67.10;;;;;;4996561;28;20036;-68
2021/06/16 04:11:19;;;;;;;1.92;1.52;;;17.80;67.20;;;;;;4999382;28;20030;-68
2021/06/16 04:13:44;;;;;;;3.78;1.55;;;18.10;67.00;;;;;;4999523;28;20165;-68
2021/06/16 04:16:10;;;;;;;6.05;2.53;;;18.50;66.10;;;;;;4999854;28;20030;-68
2021/06/16 04:18:40;;;;;;;10.48;5.10;;;18.80;65.10;;;;;;4995550;28;20026;-68
2021/06/16 04:21:06;;;;;;;11.25;5.63;;;19.00;64.60;;;;;;4999170;28;20018;-68
2021/06/16 04:23:31;;;;;;;8.75;4.90;;;19.50;63.90;;;;;;4997396;28;20112;-68
2021/06/16 04:25:57;;;;;;;4.80;2.45;;;19.90;63.60;;;;;;4999281;28;20499;-68
2021/06/16 04:28:23;;;;;;;6.80;3.28;;;20.20;61.90;;;;;;5002639;28;20116;-68
2021/06/16 04:30:49;;;;;;;4.43;1.88;;;20.40;61.30;;;;;;4997192;28;20088;-69
2021/06/16 04:33:15;;;;;;;2.53;2.00;;;20.50;61.10;;;;;;4999535;28;20489;-68
2021/06/16 04:35:40;;;;;;;2.63;2.05;;;20.70;60.60;;;;;;4998376;28;20107;-68
2021/06/16 04:38:06;;;;;;;6.28;1.35;;;20.80;60.70;;;;;;4992026;28;21666;-68
2021/06/16 04:40:32;;;;;;;5.22;1.90;;;21.00;60.00;;;;;;5005473;28;20092;-69
2021/06/16 04:42:57;;;;;;;3.33;2.17;;;21.10;59.60;;;;;;4997350;28;20030;-69
2021/06/16 04:45:23;;;;;;;3.58;1.83;;;21.50;59.20;;;;;;4998709;28;20041;-69
2021/06/16 04:47:49;;;;;;;5.22;1.55;;;21.90;57.50;;;;;;4997991;28;20132;-69
2021/06/16 04:50:15;;;;;;;7.88;1.80;;;22.10;56.80;;;;;;4998433;28;20533;-69
2021/06/16 04:52:41;;;;;;;4.07;0.95;;;22.40;57.80;;;;;;5003154;28;20026;-69
2021/06/16 04:55:09;;;;;;;3.88;1.33;;;22.40;56.70;;;;;;5002125;28;20516;-69
2021/06/16 04:57:34;;;;;;;6.30;1.60;;;22.50;56.00;;;;;;5002565;28;20212;-70
2021/06/16 05:00:00;;;;;;;3.80;1.25;;;22.70;55.60;;;;;;4998929;28;20117;-71
2021/06/16 05:02:26;;;;;;;6.10;1.50;;;23.00;54.20;;;;;;5000236;28;20121;-71
2021/06/16 05:04:51;;;;;;;5.30;1.65;;;23.30;53.90;;;;;;5008628;28;20053;-71
2021/06/16 05:07:17;;;;;;;9.25;1.80;;;23.60;52.90;;;;;;5000947;28;20041;-71
2021/06/16 05:09:42;;;;;;;5.85;1.48;;;23.80;53.50;;;;;;5000355;28;20030;-70
2021/06/16 05:12:09;;;;;;;3.90;2.15;;;24.00;52.60;;;;;;5007615;28;20029;-70
2021/06/16 05:14:34;;;;;;;4.20;1.00;;;24.40;51.80;;;;;;5002569;28;20022;-69
2021/06/16 05:17:00;;;;;;;2.28;0.90;;;24.60;50.60;;;;;;5002798;28;20049;-69
2021/06/16 05:19:25;;;;;;;2.63;0.90;;;24.70;50.40;;;;;;5006416;28;20437;-69
2021/06/16 05:21:51;;;;;;;4.05;1.50;;;24.90;50.60;;;;;;5001416;28;20277;-69
2021/06/16 05:24:18;;;;;;;6.80;1.17;;;25.10;51.00;;;;;;5000943;28;20076;-68
2021/06/16 05:26:44;;;;;;;5.05;1.10;;;25.20;50.00;;;;;;5000049;28;20029;-67
2021/06/16 05:29:10;;;;;;;7.82;1.85;;;25.30;49.80;;;;;;5000196;28;20030;-68
2021/06/16 05:31:36;;;;;;;6.32;1.52;;;25.30;49.20;;;;;;5000798;28;20029;-68
2021/06/16 05:34:03;;;;;;;4.38;1.60;;;25.40;48.90;;;;;;4999890;28;20030;-68
2021/06/16 05:36:29;;;;;;;4.68;1.25;;;25.40;49.10;;;;;;4998434;28;20034;-68
2021/06/16 05:38:55;;;;;;;3.60;0.95;;;25.40;49.10;;;;;;5000415;28;20033;-68
2021/06/16 05:41:20;;;;;;;3.17;1.25;;;25.40;49.10;;;;;;5007892;28;20022;-68
2021/06/16 05:43:46;;;;;;;5.07;1.27;;;25.30;49.30;;;;;;5016974;28;20030;-68
2021/06/16 05:46:12;;;;;;;4.70;1.77;;;25.20;49.30;;;;;;5001093;28;20481;-68
2021/06/16 05:48:37;;;;;;;5.57;1.05;;;24.90;49.50;;;;;;5000562;28;20038;-68
2021/06/16 05:51:03;;;;;;;4.32;1.50;;;24.60;49.90;;;;;;5002433;28;20105;-68
2021/06/16 05:53:29;;;;;;;3.70;0.90;;;24.50;50.90;;;;;;5001870;28;20026;-68
2021/06/16 05:55:54;;;;;;;3.22;1.73;;;24.50;51.30;;;;;;5002797;28;20045;-68
2021/06/16 05:58:20;;;;;;;6.30;1.55;;;24.30;50.90;;;;;;5000062;28;20026;-68
2021/06/16 06:00:45;;;;;;;2.50;1.33;;;24.10;51.20;;;;;;5002608;28;20531;-68
2021/06/16 06:03:11;;;;;;;3.80;1.30;;;23.90;51.40;;;;;;5001674;28;20444;-68
2021/06/16 06:05:36;;;;;;;2.60;1.33;;;23.90;51.60;;;;;;5001948;28;20042;-68
2021/06/16 06:08:02;;;;;;;6.13;1.52;;;23.80;52.20;;;;;;4996652;28;20478;-68
2021/06/16 06:10:27;;;;;;;1.42;1.05;;;23.70;52.40;;;;;;4999494;28;20026;-68
2021/06/16 06:12:54;;;;;;;4.72;1.42;;;23.80;52.50;;;;;;4999585;28;20035;-68
2021/06/16 06:15:20;;;;;;;5.40;1.58;;;23.90;52.70;;;;;;5007739;28;20034;-68
2021/06/16 06:17:46;;;;;;;4.45;1.40;;;23.90;52.50;;;;;;5048443;23;20056;-83
2021/06/16 06:20:12;;;;;;;5.03;1.65;;;23.90;52.60;;;;;;5029801;28;20108;-82
2021/06/16 06:22:37;;;;;;;4.18;1.30;;;23.80;52.60;;;;;;5033562;28;20021;-83
2021/06/16 06:25:04;;;;;;;11.48;1.40;;;23.70;53.10;;;;;;5031950;28;20096;-82
2021/06/16 06:27:29;;;;;;;7.28;1.15;;;23.60;53.20;;;;;;5020087;28;20629;-82
2021/06/16 06:29:55;;;;;;;4.50;1.02;;;23.60;53.80;;;;;;5030247;28;20041;-82
2021/06/16 06:32:21;;;;;;;6.55;1.92;;;23.70;53.80;;;;;;5026429;28;20033;-85
2021/06/16 06:34:46;;;;;;;4.05;1.27;;;23.80;54.20;;;;;;5031215;28;20032;-86
2021/06/16 06:37:12;;;;;;;7.25;2.30;;;23.70;53.90;;;;;;5027060;28;20071;-84
2021/06/16 06:39:37;;;;;;;3.25;1.73;;;23.60;54.30;;;;;;5028081;28;20492;-84
2021/06/16 06:42:03;;;;;;;10.15;2.55;;;23.60;54.20;;;;;;5026819;28;20092;-85
2021/06/16 06:44:29;;;;;;;7.50;1.55;;;23.40;54.30;;;;;;5028571;28;20120;-85
2021/06/16 06:46:54;;;;;;;4.43;1.45;;;23.20;55.20;;;;;;5028489;28;20124;-84
2021/06/16 06:49:20;;;;;;;5.13;1.38;;;23.20;55.80;;;;;;5027368;28;20037;-85
2021/06/16 06:51:45;;;;;;;1.83;1.35;;;23.10;56.10;;;;;;5030924;28;20017;-80
2021/06/16 06:54:11;;;;;;;4.53;1.35;;;23.00;56.60;;;;;;5028663;28;20036;-80
2021/06/16 06:56:37;;;;;;;4.93;1.73;;;23.00;57.00;;;;;;5025548;28;20068;-81
2021/06/16 06:59:05;;;;;;;5.78;1.58;;;23.00;57.20;;;;;;5022945;28;20041;-80
2021/06/16 07:01:31;;;;;;;7.55;1.98;;;23.00;57.00;;;;;;5026225;28;20040;-86
2021/06/16 07:04:01;;;;;;;5.05;1.70;;;22.80;57.90;;;;;;5028920;28;20404;-86
2021/06/16 07:06:30;;;;;;;8.07;3.47;;;22.90;58.00;;;;;;5027695;28;20082;-85
2021/06/16 07:08:56;;;;;;;4.82;2.05;;;23.30;58.00;;;;;;5024250;28;20018;-80
2021/06/16 07:11:21;;;;;;;7.22;2.08;;;23.70;57.50;;;;;;5028074;28;20103;-80
2021/06/16 07:13:47;;;;;;;6.32;2.20;;;24.00;56.70;;;;;;5027730;28;20120;-83
2021/06/16 07:16:12;;;;;;;5.90;1.60;;;24.20;56.10;;;;;;5025929;28;20029;-85
2021/06/16 07:18:38;;;;;;;7.35;2.17;;;24.20;55.30;;;;;;5023749;28;20486;-82
2021/06/16 07:21:04;;;;;;;4.85;1.55;;;24.30;55.00;;;;;;5027479;28;20029;-82
2021/06/16 07:23:30;;;;;;;4.20;1.70;;;24.30;55.00;;;;;;5025618;28;20044;-83
2021/06/16 07:25:56;;;;;;;4.10;1.55;;;24.50;54.60;;;;;;5025094;28;20030;-84
2021/06/16 07:28:21;;;;;;;6.00;1.88;;;24.50;54.70;;;;;;5024556;28;20033;-86
2021/06/16 07:30:47;;;;;;;2.58;2.05;;;24.50;54.20;;;;;;5022097;28;20453;-86
2021/06/16 07:33:12;;;;;;;5.78;1.90;;;24.50;54.00;;;;;;5027243;28;20021;-86
2021/06/16 07:35:38;;;;;;;7.07;2.15;;;24.40;54.20;;;;;;5027761;28;20384;-88
2021/06/16 07:38:04;;;;;;;5.40;2.00;;;24.40;54.00;;;;;;5031831;28;20258;-88
2021/06/16 07:40:30;;;;;;;4.03;1.95;;;24.50;54.10;;;;;;5031081;28;20057;-85
2021/06/16 07:42:55;;;;;;;5.00;2.22;;;24.60;53.80;;;;;;5028472;28;20619;-81
2021/06/16 07:45:21;;;;;;;9.02;2.30;;;24.50;53.40;;;;;;5026538;28;20030;-86
2021/06/16 07:47:46;;;;;;;7.13;2.30;;;24.50;53.60;;;;;;5030704;28;20030;-84
2021/06/16 07:50:13;;;;;;;5.03;2.28;;;24.30;53.90;;;;;;5028793;28;20033;-84
2021/06/16 07:52:39;;;;;;;3.03;1.92;;;24.40;54.20;;;;;;5029683;28;20109;-84
2021/06/16 07:55:05;;;;;;;3.13;2.17;;;24.50;54.30;;;;;;5019326;28;20515;-85
2021/06/16 07:57:31;;;;;;;3.20;1.80;;;24.60;53.80;;;;;;5027200;28;20037;-85
2021/06/16 07:59:57;;;;;;;8.23;3.05;;;24.40;54.20;;;;;;5025494;28;20040;-80
2021/06/16 08:02:23;;;;;;;5.35;2.50;;;24.40;54.80;;;;;;5026678;28;20037;-81
2021/06/16 08:04:49;;;;;;;4.40;2.83;;;24.60;54.90;;;;;;5025311;28;20029;-81
2021/06/16 08:07:14;;;;;;;5.57;2.28;;;24.70;54.90;;;;;;5021913;28;20077;-81
2021/06/16 08:09:42;;;;;;;5.88;2.90;;;24.90;55.00;;;;;;5023839;28;20033;-81
2021/06/16 08:12:12;;;;;;;7.75;2.80;;;24.90;54.90;;;;;;5028381;28;20009;-80
2021/06/16 08:14:38;;;;;;;4.20;3.05;;;25.00;55.30;;;;;;5029559;28;20021;-86
2021/06/16 08:17:05;;;;;;;3.95;2.83;;;25.20;55.20;;;;;;5025370;28;20033;-81
2021/06/16 08:19:31;;;;;;;4.20;2.58;;;25.30;55.30;;;;;;5024542;28;20053;-87
2021/06/16 08:21:58;;;;;;;3.92;2.58;;;25.30;55.40;;;;;;5027011;28;20030;-86
2021/06/16 08:24:24;;;;;;;3.40;3.10;;;25.30;55.50;;;;;;5030845;28;20032;-80
2021/06/16 08:26:49;;;;;;;5.43;3.15;;;25.40;55.70;;;;;;5026640;28;20447;-79
2021/06/16 08:29:15;;;;;;;5.85;3.13;;;25.50;55.90;;;;;;5025944;28;20030;-78
2021/06/16 08:31:40;;;;;;;6.47;2.95;;;25.40;56.00;;;;;;5022887;28;20070;-79
2021/06/16 08:34:06;;;;;;;5.68;4.15;;;25.40;56.30;;;;;;5030953;28;20384;-90
2021/06/16 08:36:32;;;;;;;4.68;4.15;;;25.50;56.50;;;;;;5031290;28;20369;-86
2021/06/16 08:38:57;;;;;;;7.15;4.15;;;25.40;56.60;;;;;;5020324;28;20026;-85
2021/06/16 08:41:26;;;;;;;6.07;4.07;;;25.30;57.00;;;;;;5019447;28;20018;-84
2021/06/16 08:43:52;;;;;;;4.43;4.00;;;25.30;57.20;;;;;;5029213;28;20108;-85
2021/06/16 08:46:18;;;;;;;10.73;4.80;;;25.50;57.50;;;;;;5026681;28;20029;-80
2021/06/16 08:48:45;;;;;;;9.55;5.00;;;25.30;57.70;;;;;;5027700;28;20028;-80
2021/06/16 08:51:13;;;;;;;5.85;4.75;;;25.20;58.30;;;;;;5026237;28;20048;-79
2021/06/16 08:53:40;;;;;;;6.65;4.60;;;25.20;58.50;;;;;;5026543;28;20045;-84
2021/06/16 08:56:05;;;;;;;6.35;4.57;;;25.50;58.60;;;;;;5030516;28;20072;-85
2021/06/16 08:58:36;;;;;;;9.15;5.03;;;25.60;58.50;;;;;;5021883;28;20037;-84
2021/06/16 09:01:02;;;;;;;7.68;5.15;;;25.70;58.40;;;;;;5011991;28;20034;-84
2021/06/16 09:03:28;;;;;;;8.18;5.25;;;25.70;58.70;;;;;;5028469;28;20037;-83
2021/06/16 09:05:54;;;;;;;9.10;5.70;;;25.70;58.90;;;;;;5023231;28;20087;-85
2021/06/16 09:08:23;;;;;;;7.60;5.68;;;25.90;58.90;;;;;;5023585;28;20042;-85
2021/06/16 09:10:51;;;;;;;9.90;6.63;;;25.90;58.70;;;;;;5028876;28;20025;-82
2021/06/16 09:13:26;;;;;;;10.65;5.40;;;26.10;59.20;;;;;;5026589;28;20029;-83
2021/06/16 09:15:52;;;;;;;7.63;5.25;;;26.20;59.00;;;;;;5028543;28;20093;-81
2021/06/16 09:18:17;;;;;;;10.52;6.00;;;26.50;58.70;;;;;;5025344;28;20083;-81
2021/06/16 09:20:46;;;;;;;10.00;6.68;;;26.70;58.70;;;;;;5025028;28;20025;-81
2021/06/16 09:23:21;;;;;;;8.52;6.45;;;26.80;58.80;;;;;;5022344;28;20523;-82
2021/06/16 09:26:18;;;;;;;9.07;6.85;;;26.80;58.80;;;;;;5025636;28;20476;-83
2021/06/16 09:28:49;;;;;;;8.05;6.75;;;26.80;58.70;;;;;;5025244;28;20053;-84
2021/06/16 09:31:16;;;;;;;11.20;7.20;;;26.90;58.80;;;;;;5028967;28;20021;-80
2021/06/16 09:33:42;;;;;;;8.18;6.85;;;27.00;58.40;;;;;;5028390;28;20060;-86
2021/06/16 09:36:13;;;;;;;18.30;7.80;;;26.80;57.40;;;;;;5028444;28;20017;-87
2021/06/16 09:38:39;;;;;;;8.77;6.60;;;26.50;57.80;;;;;;5025458;28;20013;-84
2021/06/16 09:41:09;;;;;;;12.77;7.05;;;26.20;58.50;;;;;;5032666;28;20026;-86
2021/06/16 09:43:35;;;;;;;9.35;7.30;;;26.30;59.50;;;;;;5020659;28;20116;-86
2021/06/16 09:46:03;;;;;;;13.57;7.65;;;26.60;58.90;;;;;;5024821;28;20453;-82
2021/06/16 09:48:45;;;;;;;8.90;7.03;;;26.70;58.60;;;;;;5025192;28;20032;-86
2021/06/16 09:51:25;;;;;;;10.23;7.10;;;27.00;58.50;;;;;;5032259;28;20029;-82
2021/06/16 09:54:13;;;;;;;10.80;8.23;;;27.20;57.90;;;;;;5030216;28;20021;-87
2021/06/16 09:56:53;;;;;;;8.23;7.32;;;27.40;57.60;;;;;;5026741;28;20022;-85
2021/06/16 09:59:37;;;;;;;11.52;8.13;;;27.50;57.10;;;;;;5028955;28;20373;-85
2021/06/16 10:02:03;;;;;;;12.98;7.90;;;27.60;56.90;;;;;;5023514;28;20115;-90
2021/06/16 10:04:47;;;;;;;11.35;7.25;;;27.50;57.10;;;;;;5032170;28;20136;-83
2021/06/16 10:07:19;;;;;;;10.65;7.93;;;27.60;57.70;;;;;;5022478;28;20026;-83
2021/06/16 10:09:57;;;;;;;7.93;6.43;;;27.60;57.70;;;;;;5027250;28;20264;-81
2021/06/16 10:12:31;;;;;;;11.90;8.05;;;27.70;57.90;;;;;;5026908;28;20063;-81
2021/06/16 10:14:59;;;;;;;11.95;8.25;;;27.80;57.70;;;;;;5032878;28;20048;-83
2021/06/16 10:17:24;;;;;;;12.98;9.05;;;27.90;57.50;;;;;;5025676;28;20412;-83
2021/06/16 10:19:51;;;;;;;10.38;8.70;;;28.10;57.50;;;;;;5026492;28;20026;-79
2021/06/16 10:22:17;;;;;;;11.65;8.18;;;28.10;57.20;;;;;;5029008;28;20041;-86
2021/06/16 10:24:43;;;;;;;13.68;8.68;;;28.10;57.00;;;;;;5004096;28;20033;-87
2021/06/16 10:27:25;;;;;;;10.82;8.52;;;28.00;57.50;;;;;;5030439;28;20163;-88
2021/06/16 10:29:52;;;;;;;9.35;8.43;;;27.90;57.10;;;;;;5028472;28;20041;-86
2021/06/16 10:32:18;;;;;;;13.75;9.30;;;27.70;57.90;;;;;;5032025;28;20026;-89
2021/06/16 10:34:55;;;;;;;11.40;8.77;;;27.70;58.10;;;;;;5032510;28;20639;-90
2021/06/16 10:37:36;;;;;;;11.85;8.70;;;27.60;57.70;;;;;;5032876;28;20036;-91
2021/06/16 10:40:17;;;;;;;11.63;7.85;;;27.70;57.90;;;;;;5030489;28;20056;-90
2021/06/16 10:43:06;;;;;;;13.63;9.95;;;27.90;58.10;;;;;;5030516;28;20056;-88
2021/06/16 10:45:39;;;;;;;21.45;17.70;;;28.00;57.60;;;;;;5029101;28;20025;-90
2021/06/16 10:48:07;;;;;;;11.43;10.00;;;27.90;57.10;;;;;;5020075;28;20116;-90
2021/06/16 10:50:45;;;;;;;10.25;8.90;;;28.00;57.80;;;;;;5030996;28;20087;-91
2021/06/16 10:53:11;;;;;;;15.15;9.73;;;27.90;57.30;;;;;;5011815;28;20022;-83
2021/06/16 10:55:52;;;;;;;13.52;9.07;;;27.90;57.10;;;;;;5013213;28;20037;-83
2021/06/16 10:58:22;;;;;;;11.05;9.75;;;28.00;57.10;;;;;;5019415;28;20069;-82
2021/06/16 11:01:06;;;;;;;13.70;10.60;;;28.00;56.90;;;;;;5018761;28;20080;-78
2021/06/16 11:03:47;;;;;;;13.23;8.98;;;28.00;57.90;;;;;;5014948;28;20025;-78
2021/06/16 11:06:31;;;;;;;11.85;9.02;;;28.30;58.00;;;;;;5023235;28;20484;-71
2021/06/16 11:08:57;;;;;;;12.77;9.02;;;28.80;57.00;;;;;;5025681;28;20259;-71
2021/06/16 11:11:24;;;;;;;11.80;9.13;;;28.90;55.90;;;;;;5029471;28;20104;-71
2021/06/16 11:13:50;;;;;;;11.65;9.90;;;28.70;56.00;;;;;;5008944;28;20488;-71
2021/06/16 11:16:39;;;;;;;14.82;10.45;;;28.60;56.20;;;;;;5026129;28;20025;-71
2021/06/16 11:19:23;;;;;;;10.98;9.85;;;28.50;56.60;;;;;;5027850;28;20159;-71
2021/06/16 11:21:53;;;;;;;11.85;10.75;;;28.60;56.90;;;;;;5025378;28;20040;-71
2021/06/16 11:24:18;;;;;;;12.95;9.07;;;28.70;56.80;;;;;;5027357;28;20021;-70
2021/06/16 11:26:45;;;;;;;13.52;9.57;;;28.70;56.90;;;;;;5027254;28;20036;-70
2021/06/16 11:29:11;;;;;;;13.63;10.13;;;28.80;56.60;;;;;;5027743;28;20037;-71
2021/06/16 11:32:11;;;;;;;18.95;10.65;;;28.90;56.10;;;;;;5027574;28;20477;-71
2021/06/16 11:34:50;;;;;;;9.02;8.20;;;28.90;56.00;;;;;;5026367;28;20052;-71
2021/06/16 11:37:53;;;;;;;12.40;9.55;;;28.90;56.60;;;;;;5026541;28;20496;-70
2021/06/16 11:40:20;;;;;;;10.02;9.07;;;29.00;56.00;;;;;;5023458;28;20032;-71
2021/06/16 11:42:45;;;;;;;12.73;9.60;;;28.80;55.90;;;;;;5029291;28;20106;-71
2021/06/16 11:45:11;;;;;;;14.23;11.35;;;28.80;56.40;;;;;;5027520;28;20172;-72
2021/06/16 11:47:38;;;;;;;10.70;8.75;;;28.90;55.90;;;;;;5026620;28;20048;-70
2021/06/16 11:50:06;;;;;;;12.30;9.05;;;29.10;55.50;;;;;;5022469;28;20213;-71
2021/06/16 11:52:31;;;;;;;11.20;9.50;;;29.20;55.80;;;;;;5028478;28;20610;-70
2021/06/16 11:54:57;;;;;;;10.27;8.65;;;29.30;55.20;;;;;;5025034;28;20112;-71
2021/06/16 11:57:26;;;;;;;10.23;9.30;;;29.10;55.30;;;;;;5027450;28;20025;-72
2021/06/16 11:59:53;;;;;;;16.42;9.23;;;29.00;56.20;;;;;;5023379;28;20030;-72
2021/06/16 12:02:29;;;;;;;10.20;9.02;;;29.00;56.20;;;;;;5028198;28;20025;-73
2021/06/16 12:04:56;;;;;;;12.98;9.55;;;29.00;55.70;;;;;;5019244;28;20052;-71
2021/06/16 12:07:40;;;;;;;16.38;10.27;;;29.10;56.30;;;;;;5023112;28;20041;-71
2021/06/16 12:10:14;;;;;;;10.00;9.00;;;29.30;56.40;;;;;;5016132;28;20443;-71
2021/06/16 12:12:47;;;;;;;14.68;10.93;;;29.10;55.40;;;;;;5028896;28;20025;-71
2021/06/16 12:15:14;;;;;;;11.20;9.63;;;29.10;56.40;;;;;;5026805;28;20021;-72
2021/06/16 12:18:00;;;;;;;18.80;10.20;;;29.30;56.30;;;;;;5049221;22;20052;-59
2021/06/16 12:20:28;;;;;;;14.25;10.75;;;29.40;56.30;;;;;;5021973;28;20041;-59
2021/06/16 12:22:54;;;;;;;10.93;9.38;;;29.40;55.90;;;;;;5026222;28;20052;-59
2021/06/16 12:25:32;;;;;;;13.88;9.10;;;29.20;56.00;;;;;;5025111;28;20033;-59
2021/06/16 12:27:58;;;;;;;11.63;9.52;;;29.10;55.90;;;;;;5024678;28;20029;-59
2021/06/16 12:30:30;;;;;;;12.60;8.75;;;29.20;56.20;;;;;;5022183;28;20039;-59
2021/06/16 12:35:55;;;;;;;15.13;13.15;;;29.20;56.30;;;;;;5026249;28;20033;-59
2021/06/16 12:38:38;;;;;;;9.95;8.82;;;29.10;56.80;;;;;;5021790;28;20451;-59
2021/06/16 12:41:22;;;;;;;16.35;14.75;;;29.10;56.70;;;;;;5023579;28;20110;-60
2021/06/16 12:43:49;;;;;;;11.27;10.27;;;29.10;56.60;;;;;;5026502;28;20084;-60
2021/06/16 12:46:14;;;;;;;23.38;20.85;;;29.10;56.80;;;;;;5023689;28;20041;-59
2021/06/16 12:48:40;;;;;;;15.95;13.80;;;29.10;56.60;;;;;;5024516;28;20029;-60
2021/06/16 12:51:06;;;;;;;18.40;14.85;;;29.10;57.10;;;;;;5022375;28;20041;-60
2021/06/16 12:53:39;;;;;;;12.35;10.02;;;29.20;56.60;;;;;;5025798;28;20021;-60
2021/06/16 12:56:06;;;;;;;13.25;9.88;;;29.50;56.90;;;;;;5025043;28;20045;-60